createdAt,value
2019-02-23T00:02:28.070Z,83.33
2019-02-23T00:04:57.641Z,83.45
2019-02-23T00:07:28.440Z,83.33
2019-02-23T00:09:57.982Z,83.16
2019-02-23T00:12:27.541Z,83.23
2019-02-23T00:14:57.319Z,83.38
2019-02-23T00:17:27.479Z,83.34
2019-02-23T00:19:58.795Z,83.31
2019-02-23T00:22:28.611Z,83.22
2019-02-23T00:24:58.180Z,83.51
2019-02-23T00:27:29.335Z,83.74
2019-02-23T00:29:59.176Z,83.77
2019-02-23T00:32:28.762Z,83.74
2019-02-23T00:34:58.303Z,83.59
2019-02-23T00:37:27.853Z,83.57
2019-02-23T00:39:57.496Z,83.55
2019-02-23T00:42:27.315Z,83.50
2019-02-23T00:44:56.876Z,83.33
2019-02-23T00:47:26.677Z,83.35
2019-02-23T00:49:56.191Z,83.54
2019-02-23T00:52:25.777Z,83.80
2019-02-23T00:54:55.318Z,83.88
2019-02-23T00:57:24.867Z,84.03
2019-02-23T00:59:54.459Z,84.16
2019-02-23T01:02:24.014Z,84.21
2019-02-23T01:04:53.589Z,84.20
2019-02-23T01:07:23.152Z,84.10
2019-02-23T01:09:52.695Z,84.27
2019-02-23T01:12:22.236Z,84.21
2019-02-23T01:14:51.781Z,84.03
2019-02-23T01:17:21.328Z,84.06
2019-02-23T01:19:50.893Z,84.24
2019-02-23T01:22:20.441Z,84.20
2019-02-23T01:24:50.017Z,84.06
2019-02-23T01:27:19.654Z,84.16
2019-02-23T01:29:49.189Z,83.97
2019-02-23T01:32:18.719Z,84.00
2019-02-23T01:34:48.292Z,84.13
2019-02-23T01:37:17.901Z,84.10
2019-02-23T01:39:47.446Z,84.16
2019-02-23T01:42:17.263Z,84.16
2019-02-23T01:44:46.812Z,84.25
2019-02-23T01:47:16.391Z,84.40
2019-02-23T01:49:45.943Z,84.37
2019-02-23T01:52:15.501Z,84.38
2019-02-23T01:54:45.040Z,84.36
2019-02-23T01:57:14.573Z,84.25
2019-02-23T01:59:46.359Z,84.12
2019-02-23T02:02:16.048Z,84.09
2019-02-23T02:04:45.659Z,84.18
2019-02-23T02:07:15.309Z,84.27
2019-02-23T02:09:45.440Z,84.27
2019-02-23T02:12:16.281Z,84.19
2019-02-23T02:14:45.820Z,84.09
2019-02-23T02:17:15.569Z,83.81
2019-02-23T02:19:45.119Z,83.77
2019-02-23T02:22:14.697Z,83.67
2019-02-23T02:24:44.285Z,83.67
2019-02-23T02:27:13.841Z,83.64
2019-02-23T02:29:43.394Z,83.70
2019-02-23T02:32:12.972Z,83.62
2019-02-23T02:34:42.506Z,83.63
2019-02-23T02:37:12.297Z,83.73
2019-02-23T02:39:41.943Z,83.92
2019-02-23T02:42:11.486Z,83.87
2019-02-23T02:44:41.037Z,83.75
2019-02-23T02:47:10.579Z,83.59
2019-02-23T02:49:40.132Z,83.48
2019-02-23T02:52:09.699Z,83.33
2019-02-23T02:54:39.271Z,83.23
2019-02-23T02:57:08.838Z,83.02
2019-02-23T02:59:38.618Z,82.62
2019-02-23T03:02:08.196Z,82.32
2019-02-23T03:04:37.763Z,82.41
2019-02-23T03:07:07.353Z,82.64
2019-02-23T03:09:37.158Z,82.91
2019-02-23T03:12:06.686Z,83.19
2019-02-23T03:14:36.317Z,83.41
2019-02-23T03:17:05.930Z,83.45
2019-02-23T03:19:35.485Z,83.40
2019-02-23T03:22:05.012Z,83.28
2019-02-23T03:24:34.593Z,83.34
2019-02-23T03:27:04.126Z,83.29
2019-02-23T03:29:33.678Z,83.26
2019-02-23T03:32:03.207Z,83.73
2019-02-23T03:34:32.804Z,83.79
2019-02-23T03:37:02.343Z,83.79
2019-02-23T03:39:31.893Z,83.98
2019-02-23T03:42:01.446Z,84.08
2019-02-23T03:44:31.239Z,84.02
2019-02-23T03:47:00.804Z,83.94
2019-02-23T03:49:30.378Z,83.73
2019-02-23T03:51:59.899Z,83.43
2019-02-23T03:54:29.520Z,83.36
2019-02-23T03:56:59.054Z,83.58
2019-02-23T03:59:30.747Z,83.53
2019-02-23T04:02:00.273Z,83.49
2019-02-23T04:04:29.816Z,83.56
2019-02-23T04:06:59.392Z,83.56
2019-02-23T04:09:28.937Z,83.60
2019-02-23T04:11:58.472Z,83.77
2019-02-23T04:14:28.018Z,83.77
2019-02-23T04:16:57.596Z,83.83
2019-02-23T04:19:28.159Z,84.24
2019-02-23T04:21:57.740Z,84.61
2019-02-23T04:24:27.281Z,84.76
2019-02-23T04:26:56.860Z,84.97
2019-02-23T04:29:26.430Z,85.18
2019-02-23T04:31:56.017Z,85.29
2019-02-23T04:34:25.537Z,85.52
2019-02-23T04:36:55.093Z,85.57
2019-02-23T04:39:24.649Z,85.45
2019-02-23T04:41:54.189Z,85.31
2019-02-23T04:44:24.065Z,85.31
2019-02-23T04:46:53.567Z,85.20
2019-02-23T04:49:25.789Z,85.26
2019-02-23T04:51:54.387Z,85.19
2019-02-23T04:54:23.920Z,85.17
2019-02-23T04:56:53.482Z,85.17
2019-02-23T04:59:23.014Z,84.96
2019-02-23T05:01:52.588Z,84.64
2019-02-23T05:04:22.168Z,84.33
2019-02-23T05:06:51.712Z,84.37
2019-02-23T05:09:21.262Z,84.40
2019-02-23T05:11:51.800Z,84.30
2019-02-23T05:14:21.354Z,84.18
2019-02-23T05:16:50.943Z,84.09
2019-02-23T05:19:20.515Z,83.97
2019-02-23T05:21:50.055Z,83.87
2019-02-23T05:24:19.681Z,83.56
2019-02-23T05:26:49.188Z,83.48
2019-02-23T05:29:18.755Z,83.42
2019-02-23T05:31:48.292Z,83.43
2019-02-23T05:34:17.879Z,83.30
2019-02-23T05:36:47.394Z,83.30
2019-02-23T05:39:17.889Z,83.23
2019-02-23T05:41:47.463Z,83.18
2019-02-23T05:44:17.028Z,83.24
2019-02-23T05:46:46.578Z,83.38
2019-02-23T05:49:16.113Z,83.37
2019-02-23T05:51:45.698Z,83.32
2019-02-23T05:54:15.233Z,83.23
2019-02-23T05:56:44.781Z,83.08
2019-02-23T05:59:14.338Z,82.80
2019-02-23T06:01:44.132Z,82.89
2019-02-23T06:04:14.570Z,82.66
2019-02-23T06:06:44.121Z,82.57
2019-02-23T06:09:13.653Z,82.72
2019-02-23T06:11:43.212Z,82.79
2019-02-23T06:14:12.742Z,82.79
2019-02-23T06:16:42.302Z,82.67
2019-02-23T06:19:11.864Z,82.47
2019-02-23T06:21:52.938Z,82.50
2019-02-23T06:24:12.971Z,82.48
2019-02-23T06:26:42.600Z,82.43
2019-02-23T06:29:12.127Z,82.08
2019-02-23T06:31:41.808Z,82.30
2019-02-23T06:34:16.295Z,82.57
2019-02-23T06:36:42.682Z,82.72
2019-02-23T06:39:12.266Z,82.89
2019-02-23T06:41:41.811Z,82.91
2019-02-23T06:44:11.382Z,83.10
2019-02-23T06:46:40.942Z,83.45
2019-02-23T06:49:10.526Z,83.80
2019-02-23T06:51:41.499Z,83.89
2019-02-23T06:54:11.169Z,83.85
2019-02-23T06:56:43.168Z,83.80
2019-02-23T06:59:13.396Z,83.73
2019-02-23T07:01:43.276Z,83.66
2019-02-23T07:04:13.156Z,83.94
2019-02-23T07:06:43.711Z,84.12
2019-02-23T07:09:13.731Z,83.98
2019-02-23T07:11:43.336Z,83.92
2019-02-23T07:14:12.869Z,83.90
2019-02-23T07:16:42.420Z,83.84
2019-02-23T07:19:11.974Z,83.73
2019-02-23T07:21:41.565Z,83.63
2019-02-23T07:24:11.104Z,83.45
2019-02-23T07:26:45.145Z,83.55
2019-02-23T07:29:14.675Z,83.73
2019-02-23T07:31:46.600Z,83.76
2019-02-23T07:34:18.943Z,83.64
2019-02-23T07:36:48.487Z,83.68
2019-02-23T07:39:18.028Z,83.71
2019-02-23T07:41:47.584Z,83.63
2019-02-23T07:44:17.177Z,83.53
2019-02-23T07:46:47.420Z,83.38
2019-02-23T07:49:17.956Z,83.23
2019-02-23T07:51:47.508Z,83.09
2019-02-23T07:54:18.695Z,82.89
2019-02-23T07:56:48.213Z,82.72
2019-02-23T07:59:19.703Z,82.60
2019-02-23T08:01:50.624Z,82.49
2019-02-23T08:04:20.177Z,82.28
2019-02-23T08:06:49.728Z,82.31
2019-02-23T08:09:19.301Z,82.33
2019-02-23T08:11:48.928Z,82.48
2019-02-23T08:14:19.746Z,82.46
2019-02-23T08:16:49.330Z,82.31
2019-02-23T08:19:18.856Z,82.12
2019-02-23T08:21:48.385Z,81.75
2019-02-23T08:24:18.875Z,81.37
2019-02-23T08:26:52.519Z,81.34
2019-02-23T08:29:21.833Z,81.00
2019-02-23T08:31:53.215Z,80.78
2019-02-23T08:34:24.162Z,80.65
2019-02-23T08:36:56.484Z,79.90
2019-02-23T08:39:28.063Z,79.25
2019-02-23T08:41:58.446Z,79.07
2019-02-23T08:44:28.009Z,79.14
2019-02-23T08:46:57.587Z,79.03
2019-02-23T08:49:30.253Z,78.73
2019-02-23T08:52:01.801Z,78.58
2019-02-23T08:54:33.205Z,77.96
2019-02-23T08:57:03.206Z,77.64
2019-02-23T08:59:34.090Z,77.18
2019-02-23T09:02:03.972Z,76.93
2019-02-23T09:04:34.517Z,76.79
2019-02-23T09:07:04.334Z,76.19
2019-02-23T09:09:34.361Z,76.10
2019-02-23T09:12:04.571Z,76.02
2019-02-23T09:14:34.648Z,75.76
2019-02-23T09:17:04.714Z,75.59
2019-02-23T09:19:34.525Z,75.59
2019-02-23T09:22:06.551Z,75.29
2019-02-23T09:24:39.184Z,74.37
2019-02-23T09:27:09.534Z,73.75
2019-02-23T09:29:39.630Z,73.42
2019-02-23T09:32:10.397Z,71.03
2019-02-23T09:34:39.933Z,71.96
2019-02-23T09:37:09.486Z,72.17
2019-02-23T09:39:42.416Z,72.29
2019-02-23T09:42:12.717Z,71.64
2019-02-23T09:44:42.259Z,70.75
2019-02-23T09:47:12.292Z,69.02
2019-02-23T09:49:41.839Z,67.57
2019-02-23T09:52:11.389Z,66.29
2019-02-23T09:54:41.202Z,66.03
2019-02-23T09:57:10.722Z,65.86
2019-02-23T09:59:40.467Z,65.75
2019-02-23T10:02:10.015Z,65.25
2019-02-23T10:04:41.832Z,64.80
2019-02-23T10:07:11.339Z,61.05
2019-02-23T10:09:40.920Z,61.22
2019-02-23T10:12:10.477Z,60.46
2019-02-23T10:14:41.359Z,61.41
2019-02-23T10:17:11.518Z,61.37
2019-02-23T10:19:41.065Z,59.66
2019-02-23T10:22:10.643Z,60.38
2019-02-23T10:24:40.200Z,60.32
2019-02-23T10:27:11.241Z,59.80
2019-02-23T10:29:41.550Z,59.95
2019-02-23T10:32:11.076Z,59.04
2019-02-23T10:34:40.629Z,59.34
2019-02-23T10:37:10.218Z,57.52
2019-02-23T10:39:39.753Z,57.44
2019-02-23T10:42:10.351Z,57.99
2019-02-23T10:44:40.415Z,58.10
2019-02-23T10:47:09.970Z,57.91
2019-02-23T10:49:39.854Z,57.92
2019-02-23T10:52:11.012Z,57.69
2019-02-23T10:54:41.071Z,57.70
2019-02-23T10:57:11.556Z,56.43
2019-02-23T10:59:41.876Z,56.23
2019-02-23T11:02:12.452Z,56.83
2019-02-23T11:04:42.768Z,56.28
2019-02-23T11:07:14.591Z,56.57
2019-02-23T11:09:45.068Z,56.39
2019-02-23T11:12:15.408Z,56.46
2019-02-23T11:14:45.533Z,55.80
2019-02-23T11:17:15.926Z,56.64
2019-02-23T11:19:48.141Z,55.60
2019-02-23T11:22:19.072Z,55.46
2019-02-23T11:24:49.955Z,55.11
2019-02-23T11:27:21.975Z,55.27
2019-02-23T11:29:52.042Z,54.85
2019-02-23T11:32:21.935Z,54.80
2019-02-23T11:34:52.509Z,53.55
2019-02-23T11:37:22.399Z,53.86
2019-02-23T11:39:52.855Z,54.04
2019-02-23T11:42:22.780Z,54.08
2019-02-23T11:44:52.611Z,53.99
2019-02-23T11:47:22.129Z,52.11
2019-02-23T11:49:51.717Z,51.94
2019-02-23T11:52:21.736Z,50.71
2019-02-23T11:54:51.278Z,49.34
2019-02-23T11:57:20.945Z,50.65
2019-02-23T11:59:51.888Z,50.88
2019-02-23T12:02:23.354Z,48.74
2019-02-23T12:04:56.023Z,47.64
2019-02-23T12:07:25.823Z,48.07
2019-02-23T12:09:55.641Z,47.92
2019-02-23T12:12:25.281Z,48.45
2019-02-23T12:14:55.625Z,47.96
2019-02-23T12:17:25.875Z,48.49
2019-02-23T12:19:58.909Z,49.00
2019-02-23T12:22:28.580Z,48.21
2019-02-23T12:24:58.625Z,48.77
2019-02-23T12:27:28.574Z,48.88
2019-02-23T12:29:58.100Z,47.88
2019-02-23T12:32:31.079Z,46.13
2019-02-23T12:35:00.760Z,46.74
2019-02-23T12:37:30.326Z,46.46
2019-02-23T12:39:59.896Z,46.91
2019-02-23T12:42:34.277Z,46.22
2019-02-23T12:45:04.150Z,44.89
2019-02-23T12:47:35.016Z,44.58
2019-02-23T12:50:06.979Z,44.21
2019-02-23T12:52:36.670Z,44.20
2019-02-23T12:55:11.132Z,43.66
2019-02-23T12:57:43.084Z,44.41
2019-02-23T13:00:19.534Z,43.97
2019-02-23T13:02:49.578Z,45.05
2019-02-23T13:05:20.278Z,46.09
2019-02-23T13:07:50.146Z,44.56
2019-02-23T13:10:19.907Z,44.40
2019-02-23T13:13:06.250Z,45.35
2019-02-23T13:15:58.326Z,44.91
2019-02-23T13:19:06.363Z,45.60
2019-02-23T13:21:57.108Z,46.07
2019-02-23T13:24:50.675Z,46.77
2019-02-23T13:27:36.100Z,46.22
2019-02-23T13:30:25.247Z,46.01
2019-02-23T13:33:17.662Z,46.08
2019-02-23T13:36:16.116Z,45.50
2019-02-23T13:38:53.752Z,46.30
2019-02-23T13:41:57.805Z,46.38
2019-02-23T13:44:59.336Z,45.66
2019-02-23T13:47:54.571Z,45.11
2019-02-23T13:50:50.028Z,45.32
2019-02-23T13:53:35.935Z,44.65
2019-02-23T13:56:25.072Z,45.13
2019-02-23T13:59:29.050Z,44.68
2019-02-23T14:02:31.403Z,44.95
2019-02-23T14:05:17.374Z,44.83
2019-02-23T14:08:08.081Z,45.38
2019-02-23T14:10:53.926Z,45.90
2019-02-23T14:13:57.007Z,46.11
2019-02-23T14:16:33.970Z,46.25
2019-02-23T14:19:08.731Z,46.38
2019-02-23T14:21:54.803Z,46.94
2019-02-23T14:24:54.694Z,46.99
2019-02-23T14:27:34.451Z,47.58
2019-02-23T14:30:29.797Z,47.23
2019-02-23T14:33:34.440Z,47.19
2019-02-23T14:36:11.705Z,47.54
2019-02-23T14:39:15.071Z,47.99
2019-02-23T14:41:58.546Z,49.13
2019-02-23T14:45:09.334Z,49.49
2019-02-23T14:47:56.645Z,49.45
2019-02-23T14:51:03.873Z,49.56
2019-02-23T14:53:54.745Z,49.77
2019-02-23T14:56:52.764Z,49.33
2019-02-23T14:59:41.528Z,49.68
2019-02-23T15:02:42.678Z,50.14
2019-02-23T15:05:33.797Z,49.68
2019-02-23T15:08:40.841Z,49.88
2019-02-23T15:11:35.787Z,50.04
2019-02-23T15:14:26.134Z,50.25
2019-02-23T15:17:28.393Z,49.91
2019-02-23T15:20:27.690Z,49.94
2019-02-23T15:23:32.375Z,50.30
2019-02-23T15:26:27.305Z,50.13
2019-02-23T15:29:16.466Z,50.51
2019-02-23T15:32:08.884Z,51.03
2019-02-23T15:35:11.364Z,50.69
2019-02-23T15:38:24.644Z,50.56
2019-02-23T15:41:38.475Z,50.41
2019-02-23T15:44:21.585Z,51.08
2019-02-23T15:47:01.138Z,51.32
2019-02-23T15:49:32.524Z,51.14
2019-02-23T15:52:04.214Z,51.05
2019-02-23T15:54:36.598Z,50.97
2019-02-23T15:57:06.446Z,50.95
2019-02-23T15:59:36.104Z,51.18
2019-02-23T16:02:06.103Z,51.45
2019-02-23T16:04:36.794Z,51.83
2019-02-23T16:07:06.796Z,52.04
2019-02-23T16:09:37.504Z,52.24
2019-02-23T16:12:07.359Z,52.40
2019-02-23T16:14:36.945Z,52.30
2019-02-23T16:17:07.094Z,52.13
2019-02-23T16:19:37.002Z,52.38
2019-02-23T16:22:07.142Z,52.58
2019-02-23T16:24:36.663Z,52.48
2019-02-23T16:27:06.832Z,52.65
2019-02-23T16:29:38.937Z,52.73
2019-02-23T16:32:08.690Z,52.82
2019-02-23T16:34:39.813Z,52.75
2019-02-23T16:37:11.758Z,52.96
2019-02-23T16:39:41.886Z,52.90
2019-02-23T16:42:11.917Z,53.00
2019-02-23T16:44:43.914Z,53.16
2019-02-23T16:47:13.586Z,53.38
2019-02-23T16:49:43.594Z,53.45
2019-02-23T16:52:13.095Z,53.68
2019-02-23T16:54:42.709Z,53.83
2019-02-23T16:57:12.710Z,54.12
2019-02-23T16:59:42.230Z,54.17
2019-02-23T17:02:11.798Z,54.31
2019-02-23T17:04:52.752Z,54.33
2019-02-23T17:07:12.730Z,54.26
2019-02-23T17:09:43.323Z,54.31
2019-02-23T17:12:12.928Z,54.07
2019-02-23T17:14:42.448Z,53.95
2019-02-23T17:17:12.986Z,54.03
2019-02-23T17:19:42.587Z,54.27
2019-02-23T17:22:12.172Z,54.41
2019-02-23T17:24:41.693Z,54.50
2019-02-23T17:27:11.515Z,54.78
2019-02-23T17:29:41.101Z,54.88
2019-02-23T17:32:10.795Z,54.96
2019-02-23T17:34:40.315Z,55.10
2019-02-23T17:37:09.886Z,55.28
2019-02-23T17:39:40.340Z,55.40
2019-02-23T17:42:10.529Z,55.50
2019-02-23T17:44:40.571Z,55.67
2019-02-23T17:47:10.517Z,55.84
2019-02-23T17:49:40.506Z,55.86
2019-02-23T17:52:10.442Z,56.01
2019-02-23T17:54:40.420Z,56.13
2019-02-23T17:57:10.475Z,56.25
2019-02-23T17:59:40.450Z,56.41
2019-02-23T18:02:11.215Z,56.62
2019-02-23T18:04:42.361Z,57.00
2019-02-23T18:07:11.898Z,57.20
2019-02-23T18:09:41.423Z,57.40
2019-02-23T18:12:10.982Z,57.69
2019-02-23T18:14:40.551Z,58.12
2019-02-23T18:17:10.204Z,58.75
2019-02-23T18:19:39.761Z,59.05
2019-02-23T18:22:09.316Z,59.20
2019-02-23T18:24:39.314Z,59.40
2019-02-23T18:27:09.388Z,59.59
2019-02-23T18:29:39.360Z,59.69
2019-02-23T18:32:09.389Z,59.73
2019-02-23T18:34:38.971Z,60.07
2019-02-23T18:37:08.516Z,60.26
2019-02-23T18:39:38.054Z,60.30
2019-02-23T18:42:09.828Z,60.33
2019-02-23T18:44:39.369Z,60.56
2019-02-23T18:47:08.953Z,61.07
2019-02-23T18:49:39.795Z,61.45
2019-02-23T18:52:11.573Z,61.66
2019-02-23T18:54:42.457Z,61.75
2019-02-23T18:57:12.559Z,62.10
2019-02-23T18:59:42.144Z,62.38
2019-02-23T19:02:11.675Z,62.67
2019-02-23T19:04:41.491Z,62.69
2019-02-23T19:07:11.031Z,62.63
2019-02-23T19:09:40.593Z,62.65
2019-02-23T19:12:10.122Z,62.80
2019-02-23T19:14:39.679Z,62.76
2019-02-23T19:17:09.295Z,62.75
2019-02-23T19:19:38.881Z,62.96
2019-02-23T19:22:08.422Z,63.11
2019-02-23T19:24:38.027Z,63.46
2019-02-23T19:27:07.841Z,63.76
2019-02-23T19:29:42.229Z,63.93
2019-02-23T19:32:11.543Z,64.01
2019-02-23T19:34:41.106Z,64.04
2019-02-23T19:37:10.688Z,64.11
2019-02-23T19:39:40.249Z,64.20
2019-02-23T19:42:09.841Z,64.11
2019-02-23T19:44:39.391Z,64.28
2019-02-23T19:47:10.437Z,64.39
2019-02-23T19:49:40.010Z,64.41
2019-02-23T19:52:09.543Z,64.42
2019-02-23T19:54:39.088Z,64.37
2019-02-23T19:57:08.647Z,64.25
2019-02-23T19:59:39.409Z,64.00
2019-02-23T20:02:08.957Z,63.66
2019-02-23T20:04:38.522Z,63.08
2019-02-23T20:07:08.067Z,62.63
2019-02-23T20:09:37.629Z,62.34
2019-02-23T20:12:07.186Z,62.27
2019-02-23T20:14:36.765Z,62.30
2019-02-23T20:17:06.302Z,62.38
2019-02-23T20:19:37.551Z,62.39
2019-02-23T20:22:07.111Z,62.35
2019-02-23T20:24:36.637Z,62.49
2019-02-23T20:27:06.204Z,62.38
2019-02-23T20:29:37.090Z,62.16
2019-02-23T20:32:06.751Z,61.83
2019-02-23T20:34:36.563Z,61.66
2019-02-23T20:37:06.113Z,61.68
2019-02-23T20:39:37.128Z,61.75
2019-02-23T20:42:07.356Z,61.95
2019-02-23T20:44:36.924Z,61.88
2019-02-23T20:47:06.501Z,61.33
2019-02-23T20:49:36.137Z,61.38
2019-02-23T20:52:05.702Z,61.61
2019-02-23T20:54:35.289Z,61.59
2019-02-23T20:57:08.010Z,61.77
2019-02-23T20:59:37.766Z,61.97
2019-02-23T21:02:07.322Z,62.33
2019-02-23T21:04:36.878Z,62.73
2019-02-23T21:07:09.853Z,62.98
2019-02-23T21:09:41.509Z,62.97
2019-02-23T21:12:13.987Z,62.75
2019-02-23T21:14:43.801Z,62.64
2019-02-23T21:17:13.441Z,62.86
2019-02-23T21:19:44.867Z,62.79
2019-02-23T21:22:14.443Z,62.70
2019-02-23T21:24:44.005Z,62.62
2019-02-23T21:27:14.866Z,62.60
2019-02-23T21:29:48.217Z,62.57
2019-02-23T21:32:19.796Z,62.53
2019-02-23T21:34:49.583Z,62.46
2019-02-23T21:37:23.695Z,62.72
2019-02-23T21:39:55.414Z,62.90
2019-02-23T21:42:28.325Z,63.18
2019-02-23T21:44:59.642Z,63.61
2019-02-23T21:47:30.785Z,64.02
2019-02-23T21:50:01.849Z,64.38
2019-02-23T21:52:31.366Z,64.42
2019-02-23T21:55:00.983Z,64.10
2019-02-23T21:57:32.175Z,64.10
2019-02-23T22:00:01.885Z,64.00
2019-02-23T22:02:31.693Z,63.70
2019-02-23T22:05:01.266Z,63.41
2019-02-23T22:07:31.156Z,63.30
2019-02-23T22:10:00.685Z,63.16
2019-02-23T22:12:31.444Z,63.18
2019-02-23T22:15:02.319Z,63.33
2019-02-23T22:17:32.389Z,63.44
2019-02-23T22:20:01.947Z,63.78
2019-02-23T22:22:31.486Z,64.11
2019-02-23T22:25:01.050Z,64.25
2019-02-23T22:27:31.527Z,64.00
2019-02-23T22:30:01.209Z,63.74
2019-02-23T22:32:30.787Z,63.62
2019-02-23T22:35:00.630Z,63.49
2019-02-23T22:37:30.162Z,63.44
2019-02-23T22:39:59.703Z,63.86
2019-02-23T22:42:29.247Z,64.21
2019-02-23T22:44:58.788Z,64.29
2019-02-23T22:47:28.342Z,64.08
2019-02-23T22:49:57.886Z,63.96
2019-02-23T22:52:27.420Z,63.64
2019-02-23T22:54:57.011Z,63.09
2019-02-23T22:57:26.571Z,63.00
2019-02-23T22:59:56.127Z,63.11
2019-02-23T23:02:25.926Z,63.11
2019-02-23T23:04:55.465Z,63.22
2019-02-23T23:07:26.444Z,63.14
2019-02-23T23:09:55.990Z,63.00
2019-02-23T23:12:25.520Z,63.09
2019-02-23T23:14:55.076Z,63.22
2019-02-23T23:17:25.234Z,63.31
2019-02-23T23:19:54.772Z,63.36
2019-02-23T23:22:24.321Z,63.49
2019-02-23T23:24:55.187Z,63.55
2019-02-23T23:27:24.723Z,63.51
2019-02-23T23:29:54.277Z,63.87
2019-02-23T23:32:23.833Z,64.04
2019-02-23T23:34:53.374Z,64.02
2019-02-23T23:37:22.943Z,63.79
2019-02-23T23:39:52.486Z,63.28
2019-02-23T23:42:22.060Z,62.91
2019-02-23T23:44:51.624Z,62.80
2019-02-23T23:47:21.196Z,62.58
2019-02-23T23:49:52.352Z,62.83
2019-02-23T23:52:21.933Z,62.69
2019-02-23T23:54:51.478Z,62.19
2019-02-23T23:57:21.050Z,62.03
2019-02-23T23:59:50.563Z,61.99
